createdAt,value
2022-09-11T00:01:40.561Z,81.28
2022-09-11T00:04:10.346Z,81.36
2022-09-11T00:06:38.818Z,81.42
2022-09-11T00:09:07.786Z,81.51
2022-09-11T00:11:41.439Z,81.61
2022-09-11T00:14:12.312Z,81.63
2022-09-11T00:16:44.936Z,81.72
2022-09-11T00:19:19.348Z,81.82
2022-09-11T00:21:50.062Z,81.83
2022-09-11T00:24:18.111Z,81.85
2022-09-11T00:26:47.932Z,81.86
2022-09-11T00:29:15.768Z,81.97
2022-09-11T00:31:43.587Z,82.06
2022-09-11T00:34:11.524Z,81.96
2022-09-11T00:36:41.678Z,81.93
2022-09-11T00:39:12.332Z,81.96
2022-09-11T00:41:44.890Z,81.99
2022-09-11T00:44:12.705Z,82.01
2022-09-11T00:46:43.735Z,81.99
2022-09-11T00:49:54.466Z,81.89
2022-09-11T00:52:29.374Z,81.82
2022-09-11T00:55:15.072Z,81.83
2022-09-11T00:57:51.779Z,81.90
2022-09-11T01:00:20.972Z,82.04
2022-09-11T01:02:51.633Z,82.19
2022-09-11T01:05:20.043Z,82.28
2022-09-11T01:07:50.329Z,82.33
2022-09-11T01:10:19.014Z,82.40
2022-09-11T01:13:17.692Z,82.44
2022-09-11T01:16:13.692Z,82.42
2022-09-11T01:19:10.437Z,82.46
2022-09-11T01:22:07.685Z,82.50
2022-09-11T01:25:17.510Z,82.57
2022-09-11T01:27:57.566Z,82.69
2022-09-11T01:30:37.633Z,82.75
2022-09-11T01:33:31.291Z,82.80
2022-09-11T01:36:22.896Z,82.83
2022-09-11T01:38:58.428Z,82.82
2022-09-11T01:41:46.991Z,82.82
2022-09-11T01:44:30.508Z,82.82
2022-09-11T01:46:58.780Z,82.82
2022-09-11T01:49:38.956Z,82.76
2022-09-11T01:52:12.983Z,82.72
2022-09-11T01:54:56.545Z,82.71
2022-09-11T01:57:35.741Z,82.71
2022-09-11T02:00:09.449Z,82.72
2022-09-11T02:02:45.290Z,82.74
2022-09-11T02:05:23.230Z,82.76
2022-09-11T02:08:06.706Z,82.75
2022-09-11T02:10:45.527Z,82.70
2022-09-11T02:13:24.048Z,82.51
2022-09-11T02:16:03.937Z,82.33
2022-09-11T02:19:04.391Z,82.26
2022-09-11T02:21:33.423Z,82.15
2022-09-11T02:24:02.323Z,82.11
2022-09-11T02:26:34.000Z,82.08
2022-09-11T02:29:01.916Z,81.97
2022-09-11T02:31:29.830Z,81.93
2022-09-11T02:33:57.981Z,81.93
2022-09-11T02:36:31.802Z,81.96
2022-09-11T02:39:35.418Z,82.05
2022-09-11T02:42:10.705Z,82.13
2022-09-11T02:45:29.162Z,82.19
2022-09-11T02:48:36.371Z,82.22
2022-09-11T02:51:18.106Z,82.21
2022-09-11T02:54:10.816Z,82.25
2022-09-11T02:56:50.979Z,82.27
2022-09-11T02:59:32.484Z,82.31
2022-09-11T03:02:02.306Z,82.35
2022-09-11T03:04:31.450Z,82.32
2022-09-11T03:06:59.666Z,82.33
2022-09-11T03:09:27.513Z,82.32
2022-09-11T03:11:55.667Z,82.33
2022-09-11T03:14:23.549Z,82.37
2022-09-11T03:16:51.197Z,82.38
2022-09-11T03:19:18.986Z,82.38
2022-09-11T03:21:46.789Z,82.37
2022-09-11T03:24:14.550Z,82.40
2022-09-11T03:26:42.277Z,82.47
2022-09-11T03:29:10.047Z,82.46
2022-09-11T03:31:39.444Z,82.42
2022-09-11T03:34:07.551Z,82.41
2022-09-11T03:36:35.391Z,82.40
2022-09-11T03:39:04.192Z,82.45
2022-09-11T03:41:32.728Z,82.41
2022-09-11T03:44:00.556Z,82.40
2022-09-11T03:46:28.280Z,82.47
2022-09-11T03:48:56.085Z,82.50
2022-09-11T03:51:23.849Z,82.55
2022-09-11T03:53:51.502Z,82.67
2022-09-11T03:56:19.238Z,82.81
2022-09-11T03:58:48.182Z,82.92
2022-09-11T04:01:19.045Z,82.94
2022-09-11T04:03:46.983Z,82.98
2022-09-11T04:06:14.796Z,83.02
2022-09-11T04:08:42.703Z,83.17
2022-09-11T04:11:11.759Z,83.13
2022-09-11T04:13:42.298Z,83.06
2022-09-11T04:16:17.225Z,83.06
2022-09-11T04:18:49.651Z,83.11
2022-09-11T04:21:18.832Z,83.13
2022-09-11T04:23:53.437Z,83.18
2022-09-11T04:26:25.004Z,83.27
2022-09-11T04:28:53.087Z,83.28
2022-09-11T04:31:22.645Z,83.29
2022-09-11T04:33:50.507Z,83.33
2022-09-11T04:36:19.698Z,83.37
2022-09-11T04:38:48.956Z,83.42
2022-09-11T04:41:16.855Z,83.48
2022-09-11T04:43:45.211Z,83.49
2022-09-11T04:46:16.373Z,83.49
2022-09-11T04:48:49.333Z,83.47
2022-09-11T04:51:43.628Z,83.45
2022-09-11T04:54:18.007Z,83.41
2022-09-11T04:56:45.697Z,83.42
2022-09-11T04:59:18.110Z,83.41
2022-09-11T05:01:46.853Z,83.41
2022-09-11T05:04:16.610Z,83.41
2022-09-11T05:06:48.317Z,83.43
2022-09-11T05:09:17.875Z,83.38
2022-09-11T05:11:48.863Z,83.38
2022-09-11T05:14:18.543Z,83.39
2022-09-11T05:16:46.413Z,83.43
2022-09-11T05:19:14.222Z,83.49
2022-09-11T05:21:42.483Z,83.52
2022-09-11T05:24:10.299Z,83.59
2022-09-11T05:26:38.263Z,83.62
2022-09-11T05:29:10.999Z,83.60
2022-09-11T05:31:39.528Z,83.58
2022-09-11T05:34:07.800Z,83.57
2022-09-11T05:36:35.995Z,83.58
2022-09-11T05:39:04.532Z,83.66
2022-09-11T05:41:32.367Z,83.70
2022-09-11T05:44:00.213Z,83.72
2022-09-11T05:46:28.507Z,83.70
2022-09-11T05:48:56.213Z,83.70
2022-09-11T05:51:24.104Z,83.67
2022-09-11T05:53:56.770Z,83.62
2022-09-11T05:56:25.891Z,83.53
2022-09-11T05:58:54.003Z,83.43
2022-09-11T06:01:27.629Z,83.37
2022-09-11T06:03:56.736Z,83.26
2022-09-11T06:06:27.009Z,83.16
2022-09-11T06:08:56.112Z,83.11
2022-09-11T06:11:24.070Z,82.95
2022-09-11T06:13:51.965Z,82.76
2022-09-11T06:16:22.442Z,82.81
2022-09-11T06:18:52.204Z,82.63
2022-09-11T06:21:24.022Z,82.40
2022-09-11T06:23:53.189Z,82.14
2022-09-11T06:26:24.959Z,81.82
2022-09-11T06:28:54.114Z,81.52
2022-09-11T06:31:25.638Z,81.21
2022-09-11T06:33:54.071Z,81.11
2022-09-11T06:36:26.668Z,80.99
2022-09-11T06:38:55.452Z,80.61
2022-09-11T06:41:24.709Z,80.78
2022-09-11T06:43:52.823Z,80.53
2022-09-11T06:46:23.547Z,80.29
2022-09-11T06:48:52.292Z,80.12
2022-09-11T06:51:22.556Z,80.12
2022-09-11T06:53:56.331Z,80.10
2022-09-11T06:56:25.054Z,79.99
2022-09-11T06:58:53.025Z,79.80
2022-09-11T07:01:22.342Z,79.78
2022-09-11T07:03:53.517Z,79.77
2022-09-11T07:06:24.956Z,79.72
2022-09-11T07:09:03.657Z,79.46
2022-09-11T07:11:34.513Z,79.29
2022-09-11T07:14:10.727Z,79.21
2022-09-11T07:16:38.799Z,79.23
2022-09-11T07:19:09.614Z,79.12
2022-09-11T07:21:37.392Z,78.84
2022-09-11T07:24:05.476Z,78.89
2022-09-11T07:26:33.204Z,78.84
2022-09-11T07:29:00.985Z,78.86
2022-09-11T07:31:33.185Z,78.89
2022-09-11T07:34:02.859Z,78.84
2022-09-11T07:36:34.472Z,78.83
2022-09-11T07:39:03.640Z,78.77
2022-09-11T07:41:32.150Z,78.57
2022-09-11T07:44:00.345Z,78.53
2022-09-11T07:46:31.370Z,78.45
2022-09-11T07:49:02.192Z,78.32
2022-09-11T07:51:30.071Z,78.38
2022-09-11T07:53:59.531Z,78.34
2022-09-11T07:56:27.723Z,78.36
2022-09-11T07:58:56.098Z,78.18
2022-09-11T08:01:29.990Z,78.05
2022-09-11T08:04:00.962Z,78.10
2022-09-11T08:06:32.176Z,78.11
2022-09-11T08:09:03.189Z,78.10
2022-09-11T08:11:34.892Z,78.18
2022-09-11T08:14:02.933Z,78.19
2022-09-11T08:16:31.512Z,78.12
2022-09-11T08:18:59.418Z,78.17
2022-09-11T08:21:28.003Z,78.05
2022-09-11T08:23:56.241Z,78.00
2022-09-11T08:26:27.495Z,77.88
2022-09-11T08:28:59.989Z,77.83
2022-09-11T08:31:28.990Z,77.71
2022-09-11T08:33:57.238Z,77.86
2022-09-11T08:36:25.812Z,77.78
2022-09-11T08:38:54.345Z,77.58
2022-09-11T08:41:37.468Z,77.51
2022-09-11T08:44:11.125Z,77.28
2022-09-11T08:46:48.008Z,77.04
2022-09-11T08:49:39.616Z,76.55
2022-09-11T08:52:15.625Z,76.12
2022-09-11T08:54:44.141Z,75.73
2022-09-11T08:57:43.615Z,75.13
2022-09-11T09:00:22.433Z,75.32
2022-09-11T09:03:30.561Z,75.36
2022-09-11T09:06:12.604Z,74.12
2022-09-11T09:08:54.946Z,73.65
2022-09-11T09:11:36.187Z,72.05
2022-09-11T09:14:29.377Z,72.09
2022-09-11T09:17:08.497Z,71.65
2022-09-11T09:19:46.637Z,70.74
2022-09-11T09:22:37.768Z,69.47
2022-09-11T09:25:13.012Z,70.19
2022-09-11T09:27:47.272Z,69.28
2022-09-11T09:30:27.394Z,69.23
2022-09-11T09:33:13.074Z,69.02
2022-09-11T09:35:46.186Z,68.47
2022-09-11T09:38:18.712Z,67.81
2022-09-11T09:41:02.430Z,67.89
2022-09-11T09:43:44.355Z,64.95
2022-09-11T09:46:48.741Z,64.94
2022-09-11T09:49:27.414Z,64.34
2022-09-11T09:52:04.230Z,63.16
2022-09-11T09:54:45.300Z,63.50
2022-09-11T09:57:24.764Z,62.72
2022-09-11T10:00:19.877Z,62.70
2022-09-11T10:02:57.490Z,61.17
2022-09-11T10:05:44.643Z,60.47
2022-09-11T10:08:34.069Z,60.00
2022-09-11T10:11:12.266Z,60.74
2022-09-11T10:13:43.298Z,61.74
2022-09-11T10:16:26.043Z,61.92
2022-09-11T10:18:55.968Z,62.75
2022-09-11T10:21:35.880Z,61.65
2022-09-11T10:24:25.355Z,61.39
2022-09-11T10:26:55.894Z,60.47
2022-09-11T10:29:30.163Z,60.26
2022-09-11T10:32:36.180Z,59.84
2022-09-11T10:35:09.779Z,59.72
2022-09-11T10:37:39.216Z,60.55
2022-09-11T10:40:21.029Z,60.88
2022-09-11T10:42:50.417Z,61.13
2022-09-11T10:45:21.935Z,60.01
2022-09-11T10:47:49.982Z,59.34
2022-09-11T10:50:17.945Z,59.45
2022-09-11T10:53:03.634Z,59.29
2022-09-11T10:55:39.175Z,59.24
2022-09-11T10:58:32.707Z,58.98
2022-09-11T11:01:01.538Z,59.56
2022-09-11T11:03:29.727Z,59.95
2022-09-11T11:06:44.199Z,59.77
2022-09-11T11:10:08.774Z,60.27
2022-09-11T11:13:29.974Z,60.60
2022-09-11T11:16:21.279Z,61.27
2022-09-11T11:19:31.068Z,61.69
2022-09-11T11:22:19.203Z,62.31
2022-09-11T11:25:17.632Z,62.36
2022-09-11T11:28:32.128Z,62.75
2022-09-11T11:31:23.683Z,62.13
2022-09-11T11:34:04.113Z,61.89
2022-09-11T11:37:10.949Z,62.12
2022-09-11T11:39:50.808Z,62.39
2022-09-11T11:43:00.021Z,62.34
2022-09-11T11:45:46.171Z,61.62
2022-09-11T11:48:44.756Z,62.02
2022-09-11T11:51:18.543Z,62.30
2022-09-11T11:54:22.011Z,62.16
2022-09-11T11:56:57.856Z,62.18
2022-09-11T11:59:36.925Z,62.14
2022-09-11T12:02:09.808Z,62.44
2022-09-11T12:04:55.932Z,62.98
2022-09-11T12:07:31.177Z,63.35
2022-09-11T12:10:02.130Z,63.54
2022-09-11T12:12:53.005Z,63.92
2022-09-11T12:15:23.998Z,63.93
2022-09-11T12:18:16.221Z,64.21
2022-09-11T12:20:46.083Z,64.54
2022-09-11T12:23:34.111Z,64.52
2022-09-11T12:26:23.356Z,64.02
2022-09-11T12:29:11.859Z,63.62
2022-09-11T12:31:51.633Z,63.58
2022-09-11T12:34:27.136Z,63.55
2022-09-11T12:37:05.352Z,63.14
2022-09-11T12:39:48.263Z,63.21
2022-09-11T12:42:25.549Z,63.39
2022-09-11T12:44:55.273Z,63.39
2022-09-11T12:47:41.234Z,63.41
2022-09-11T12:50:19.267Z,63.48
2022-09-11T12:52:57.802Z,63.71
2022-09-11T12:55:40.125Z,63.76
2022-09-11T12:58:20.417Z,64.03
2022-09-11T13:00:51.077Z,64.08
2022-09-11T13:03:34.392Z,64.12
2022-09-11T13:06:07.700Z,64.39
2022-09-11T13:08:47.790Z,64.73
2022-09-11T13:11:38.104Z,64.70
2022-09-11T13:14:29.236Z,64.76
2022-09-11T13:17:02.712Z,65.11
2022-09-11T13:19:37.760Z,65.08
2022-09-11T13:22:27.940Z,65.20
2022-09-11T13:25:20.632Z,65.35
2022-09-11T13:27:54.782Z,65.62
2022-09-11T13:30:24.839Z,66.21
2022-09-11T13:33:14.621Z,66.73
2022-09-11T13:35:45.389Z,67.13
2022-09-11T13:38:24.057Z,67.30
2022-09-11T13:41:01.030Z,67.71
2022-09-11T13:43:36.087Z,68.41
2022-09-11T13:46:16.223Z,69.03
2022-09-11T13:48:46.634Z,68.86
2022-09-11T13:51:20.959Z,69.23
2022-09-11T13:54:11.811Z,69.57
2022-09-11T13:57:10.679Z,69.91
2022-09-11T13:59:47.680Z,70.07
2022-09-11T14:02:33.708Z,69.81
2022-09-11T14:05:07.488Z,69.67
2022-09-11T14:08:04.967Z,69.75
2022-09-11T14:10:47.254Z,69.74
2022-09-11T14:13:36.465Z,69.98
2022-09-11T14:16:16.322Z,69.67
2022-09-11T14:18:59.782Z,69.61
2022-09-11T14:21:36.966Z,69.54
2022-09-11T14:24:22.363Z,69.32
2022-09-11T14:26:50.792Z,68.93
2022-09-11T14:29:28.647Z,67.98
2022-09-11T14:32:28.234Z,66.98
2022-09-11T14:34:56.483Z,66.39
2022-09-11T14:37:26.532Z,66.48
2022-09-11T14:40:31.692Z,66.35
2022-09-11T14:43:03.009Z,65.86
2022-09-11T14:50:05.653Z,65.54
2022-09-11T14:55:18.790Z,65.72
2022-09-11T14:57:47.535Z,65.82
2022-09-11T15:00:19.098Z,65.82
2022-09-11T15:02:52.265Z,66.20
2022-09-11T15:05:24.708Z,65.81
2022-09-11T15:07:53.170Z,65.66
2022-09-11T15:10:21.203Z,65.15
2022-09-11T15:12:49.252Z,65.21
2022-09-11T15:15:17.798Z,65.06
2022-09-11T15:17:46.373Z,65.27
2022-09-11T15:20:14.244Z,65.35
2022-09-11T15:22:42.085Z,65.49
2022-09-11T15:25:10.252Z,65.37
2022-09-11T15:27:41.391Z,65.35
2022-09-11T15:30:10.246Z,65.49
2022-09-11T15:32:38.514Z,65.55
2022-09-11T15:35:08.057Z,64.98
2022-09-11T15:37:36.042Z,64.91
2022-09-11T15:40:04.648Z,64.52
2022-09-11T15:42:39.520Z,64.60
2022-09-11T15:45:09.163Z,64.50
2022-09-11T15:47:37.174Z,64.53
2022-09-11T15:50:06.323Z,64.54
2022-09-11T15:52:36.654Z,64.43
2022-09-11T15:55:07.897Z,64.49
2022-09-11T15:57:36.888Z,64.47
2022-09-11T16:00:05.289Z,64.51
2022-09-11T16:02:33.128Z,64.64
2022-09-11T16:05:01.773Z,64.79
2022-09-11T16:07:30.673Z,64.97
2022-09-11T16:13:14.803Z,65.20
2022-09-11T16:16:12.095Z,65.14
2022-09-11T16:18:42.875Z,65.27
2022-09-11T16:21:36.016Z,65.49
2022-09-11T16:24:08.030Z,65.43
2022-09-11T16:26:38.386Z,65.37
2022-09-11T16:29:12.399Z,65.67
2022-09-11T16:31:40.310Z,66.01
2022-09-11T16:34:11.848Z,66.35
2022-09-11T16:36:48.920Z,66.52
2022-09-11T16:39:25.232Z,66.71
2022-09-11T16:42:18.957Z,66.90
2022-09-11T16:45:40.753Z,67.14
2022-09-11T16:53:19.377Z,67.24
2022-09-11T16:56:27.677Z,67.30
2022-09-11T16:59:44.422Z,67.40
2022-09-11T17:02:12.319Z,67.41
2022-09-11T17:04:40.128Z,67.36
2022-09-11T17:07:07.907Z,67.28
2022-09-11T17:09:35.668Z,67.33
2022-09-11T17:12:03.787Z,67.18
2022-09-11T17:14:32.760Z,67.24
2022-09-11T17:17:03.281Z,67.22
2022-09-11T17:19:38.905Z,67.40
2022-09-11T17:22:09.001Z,67.34
2022-09-11T17:25:38.345Z,67.34
2022-09-11T17:29:01.638Z,67.65
2022-09-11T17:31:44.712Z,67.83
2022-09-11T17:34:16.402Z,67.93
2022-09-11T17:36:51.727Z,68.27
2022-09-11T17:39:19.960Z,68.38
2022-09-11T17:41:51.678Z,68.50
2022-09-11T17:44:27.748Z,68.39
2022-09-11T17:47:01.069Z,68.52
2022-09-11T17:49:32.383Z,68.63
2022-09-11T17:52:01.060Z,68.78
2022-09-11T17:54:29.084Z,69.03
2022-09-11T17:56:59.688Z,69.19
2022-09-11T17:59:32.120Z,69.33
2022-09-11T18:02:03.609Z,69.44
2022-09-11T18:04:34.756Z,69.67
2022-09-11T18:07:04.998Z,69.80
2022-09-11T18:09:33.351Z,69.94
2022-09-11T18:12:05.144Z,69.97
2022-09-11T18:14:38.259Z,70.12
2022-09-11T18:17:06.972Z,70.13
2022-09-11T18:19:36.842Z,70.22
2022-09-11T18:22:09.832Z,70.30
2022-09-11T18:24:41.684Z,70.42
2022-09-11T18:28:05.450Z,70.39
2022-09-11T18:31:02.933Z,70.25
2022-09-11T18:33:51.424Z,70.66
2022-09-11T18:36:34.320Z,70.92
2022-09-11T18:39:04.246Z,70.96
2022-09-11T18:41:35.610Z,70.94
2022-09-11T18:44:36.991Z,70.99
2022-09-11T18:47:08.806Z,70.99
2022-09-11T18:49:47.148Z,70.95
2022-09-11T18:52:21.627Z,71.02
2022-09-11T18:55:06.610Z,71.08
2022-09-11T18:57:40.136Z,71.13
2022-09-11T19:00:21.177Z,71.21
2022-09-11T19:02:59.685Z,71.29
2022-09-11T19:05:29.480Z,71.35
2022-09-11T19:08:00.207Z,71.35
2022-09-11T19:10:32.250Z,71.33
2022-09-11T19:13:02.937Z,71.54
2022-09-11T19:15:31.553Z,71.77
2022-09-11T19:18:08.583Z,72.09
2022-09-11T19:20:39.843Z,72.10
2022-09-11T19:23:09.473Z,72.33
2022-09-11T19:25:40.749Z,72.45
2022-09-11T19:28:08.872Z,72.72
2022-09-11T19:30:41.225Z,72.99
2022-09-11T19:33:11.921Z,73.13
2022-09-11T19:36:03.838Z,73.19
2022-09-11T19:38:37.250Z,73.17
2022-09-11T19:41:14.353Z,73.25
2022-09-11T19:44:02.014Z,73.25
2022-09-11T19:46:41.413Z,73.17
2022-09-11T19:49:11.336Z,73.02
2022-09-11T19:51:42.816Z,73.17
2022-09-11T19:54:15.954Z,73.21
2022-09-11T19:56:45.296Z,73.42
2022-09-11T19:59:16.414Z,73.56
2022-09-11T20:01:45.271Z,73.44
2022-09-11T20:04:15.656Z,73.41
2022-09-11T20:09:31.393Z,73.58
2022-09-11T20:12:01.397Z,73.59
2022-09-11T20:14:31.173Z,73.71
2022-09-11T20:17:01.125Z,73.75
2022-09-11T20:19:28.989Z,73.87
2022-09-11T20:21:57.027Z,73.95
2022-09-11T20:24:24.825Z,73.91
2022-09-11T20:26:53.826Z,74.01
2022-09-11T20:29:21.704Z,73.85
2022-09-11T20:31:51.230Z,73.90
2022-09-11T20:34:20.280Z,74.03
2022-09-11T20:36:48.377Z,74.26
2022-09-11T20:39:16.826Z,74.46
2022-09-11T20:41:44.823Z,74.74
2022-09-11T20:44:12.735Z,74.87
2022-09-11T20:46:41.317Z,74.84
2022-09-11T20:49:10.885Z,74.91
2022-09-11T20:51:43.256Z,74.96
2022-09-11T20:54:14.578Z,74.96
2022-09-11T20:56:44.649Z,75.16
2022-09-11T20:59:12.733Z,75.33
2022-09-11T21:01:40.489Z,75.34
2022-09-11T21:04:08.226Z,75.29
2022-09-11T21:06:36.005Z,75.19
2022-09-11T21:09:09.866Z,75.35
2022-09-11T21:11:40.372Z,75.48
2022-09-11T21:14:15.073Z,75.44
2022-09-11T21:16:43.126Z,75.44
2022-09-11T21:19:11.032Z,75.50
2022-09-11T21:21:42.541Z,75.56
2022-09-11T21:24:13.000Z,75.55
2022-09-11T21:26:42.450Z,75.58
2022-09-11T21:29:12.930Z,75.59
2022-09-11T21:31:42.471Z,75.67
2022-09-11T21:34:10.799Z,75.60
2022-09-11T21:36:38.656Z,75.64
2022-09-11T21:39:06.556Z,75.62
2022-09-11T21:41:34.678Z,75.61
2022-09-11T21:44:02.873Z,75.77
2022-09-11T21:46:30.561Z,75.96
2022-09-11T21:48:58.209Z,76.21
2022-09-11T21:51:25.937Z,76.28
2022-09-11T21:53:59.067Z,76.59
2022-09-11T21:56:32.274Z,76.43
2022-09-11T21:59:00.667Z,76.44
2022-09-11T22:01:29.858Z,76.53
2022-09-11T22:03:58.609Z,76.62
2022-09-11T22:06:27.025Z,76.61
2022-09-11T22:08:56.293Z,76.71
2022-09-11T22:11:26.011Z,76.79
2022-09-11T22:13:54.252Z,76.81
2022-09-11T22:16:23.120Z,76.86
2022-09-11T22:18:53.510Z,77.00
2022-09-11T22:21:21.372Z,77.09
2022-09-11T22:23:49.677Z,77.25
2022-09-11T22:26:20.058Z,77.25
2022-09-11T22:28:48.094Z,77.51
2022-09-11T22:31:20.822Z,77.47
2022-09-11T22:33:48.861Z,77.61
2022-09-11T22:36:26.266Z,77.71
2022-09-11T22:38:55.066Z,77.76
2022-09-11T22:41:23.474Z,77.77
2022-09-11T22:43:51.438Z,77.95
2022-09-11T22:46:20.950Z,77.92
2022-09-11T22:48:49.159Z,78.17
2022-09-11T22:51:17.130Z,78.38
2022-09-11T22:53:45.096Z,78.35
2022-09-11T22:56:13.959Z,78.28
2022-09-11T22:58:42.294Z,78.41
2022-09-11T23:01:14.116Z,78.46
2022-09-11T23:03:42.198Z,78.53
2022-09-11T23:06:29.896Z,78.47
2022-09-11T23:08:57.712Z,78.45
2022-09-11T23:11:25.814Z,78.58
2022-09-11T23:13:53.521Z,78.67
2022-09-11T23:16:24.291Z,78.70
2022-09-11T23:19:03.232Z,78.83
2022-09-11T23:21:35.702Z,79.07
2022-09-11T23:24:06.157Z,79.05
2022-09-11T23:26:34.026Z,79.02
2022-09-11T23:29:01.815Z,79.23
2022-09-11T23:31:32.524Z,79.13
2022-09-11T23:34:08.719Z,79.31
2022-09-11T23:36:36.788Z,79.29
2022-09-11T23:39:04.702Z,79.33
2022-09-11T23:41:32.624Z,79.70
2022-09-11T23:44:00.357Z,79.77
2022-09-11T23:46:28.656Z,79.78
2022-09-11T23:48:56.525Z,79.80
2022-09-11T23:51:24.197Z,79.69
2022-09-11T23:53:52.029Z,79.77
2022-09-11T23:56:22.365Z,79.78
2022-09-11T23:58:50.957Z,79.86
